createdAt,value
2018-07-11T00:00:31.123Z,101119.00
2018-07-11T00:05:24.424Z,101117.00
2018-07-11T00:10:19.228Z,101114.00
2018-07-11T00:15:12.483Z,101113.00
2018-07-11T00:20:05.859Z,101112.00
2018-07-11T00:24:59.085Z,101119.00
2018-07-11T00:29:52.464Z,101113.00
2018-07-11T00:34:45.813Z,101114.00
2018-07-11T00:39:39.133Z,101119.00
2018-07-11T00:44:32.465Z,101121.00
2018-07-11T00:49:25.823Z,101129.00
2018-07-11T00:54:19.270Z,101130.00
2018-07-11T00:59:26.594Z,101124.00
2018-07-11T01:04:19.957Z,101127.00
2018-07-11T01:09:13.116Z,101123.00
2018-07-11T01:14:06.500Z,101125.00
2018-07-11T01:19:05.979Z,101129.00
2018-07-11T01:23:59.721Z,101131.00
2018-07-11T01:28:53.069Z,101141.00
2018-07-11T01:33:46.320Z,101143.00
2018-07-11T01:38:39.591Z,101142.00
2018-07-11T01:43:32.893Z,101141.00
2018-07-11T01:48:26.260Z,101144.00
2018-07-11T01:53:19.579Z,101149.00
2018-07-11T01:58:13.041Z,101147.00
2018-07-11T02:03:06.194Z,101144.00
2018-07-11T02:07:59.563Z,101149.00
2018-07-11T02:12:52.796Z,101149.00
2018-07-11T02:17:46.349Z,101154.00
2018-07-11T02:22:40.037Z,101155.00
2018-07-11T02:27:33.565Z,101159.00
2018-07-11T02:32:26.927Z,101155.00
2018-07-11T02:37:20.201Z,101159.00
2018-07-11T02:42:13.541Z,101152.00
2018-07-11T02:47:44.154Z,101148.00
2018-07-11T02:52:37.429Z,101147.00
2018-07-11T02:57:30.722Z,101151.00
2018-07-11T03:02:24.080Z,101150.00
2018-07-11T03:07:18.337Z,101156.00
2018-07-11T03:12:11.577Z,101156.00
2018-07-11T03:17:05.959Z,101162.00
2018-07-11T03:21:59.271Z,101163.00
2018-07-11T03:26:52.752Z,101165.00
2018-07-11T03:31:46.061Z,101169.00
2018-07-11T03:36:39.336Z,101164.00
2018-07-11T03:41:32.627Z,101167.00
2018-07-11T03:46:25.920Z,101162.00
2018-07-11T03:51:19.206Z,101164.00
2018-07-11T03:56:12.441Z,101167.00
2018-07-11T04:01:05.679Z,101169.00
2018-07-11T04:05:58.824Z,101170.00
2018-07-11T04:10:52.145Z,101180.00
2018-07-11T04:15:45.626Z,101182.00
2018-07-11T04:20:38.884Z,101175.00
2018-07-11T04:25:32.073Z,101186.00
2018-07-11T04:30:25.338Z,101191.00
2018-07-11T04:35:18.537Z,101197.00
2018-07-11T04:40:11.793Z,101193.00
2018-07-11T04:45:05.054Z,101198.00
2018-07-11T04:49:58.228Z,101205.00
2018-07-11T04:54:51.636Z,101219.00
2018-07-11T04:59:44.844Z,101226.00
2018-07-11T05:04:38.776Z,101231.00
2018-07-11T05:09:32.003Z,101230.00
2018-07-11T05:14:25.220Z,101222.00
2018-07-11T05:19:19.095Z,101222.00
2018-07-11T05:24:12.252Z,101208.00
2018-07-11T05:29:05.515Z,101212.00
2018-07-11T05:33:58.735Z,101220.00
2018-07-11T05:38:51.990Z,101221.00
2018-07-11T05:43:45.113Z,101219.00
2018-07-11T05:48:38.361Z,101226.00
2018-07-11T05:53:31.607Z,101227.00
2018-07-11T05:58:24.752Z,101232.00
2018-07-11T06:03:18.203Z,101234.00
2018-07-11T06:08:12.155Z,101241.00
2018-07-11T06:13:05.402Z,101247.00
2018-07-11T06:17:58.605Z,101251.00
2018-07-11T06:22:52.289Z,101255.00
2018-07-11T06:27:45.530Z,101250.00
2018-07-11T06:32:38.819Z,101238.00
2018-07-11T06:37:32.094Z,101236.00
2018-07-11T06:42:25.313Z,101242.00
2018-07-11T06:47:18.572Z,101235.00
2018-07-11T06:52:11.981Z,101240.00
2018-07-11T06:57:06.373Z,101234.00
2018-07-11T07:01:59.585Z,101232.00
2018-07-11T07:06:53.408Z,101223.00
2018-07-11T07:11:46.537Z,101237.00
2018-07-11T07:16:40.661Z,101240.00
2018-07-11T07:21:33.961Z,101232.00
2018-07-11T07:26:27.179Z,101227.00
2018-07-11T07:31:20.430Z,101231.00
2018-07-11T07:36:13.860Z,101220.00
2018-07-11T07:41:08.462Z,101210.00
2018-07-11T07:46:01.828Z,101206.00
2018-07-11T07:50:55.151Z,101207.00
2018-07-11T07:55:48.533Z,101207.00
2018-07-11T08:00:41.786Z,101208.00
2018-07-11T08:05:34.974Z,101211.00
2018-07-11T08:10:28.299Z,101205.00
2018-07-11T08:15:21.564Z,101206.00
2018-07-11T08:20:15.016Z,101209.00
2018-07-11T08:26:28.562Z,101214.00
2018-07-11T08:31:43.029Z,101207.00
2018-07-11T08:38:54.685Z,101206.00
2018-07-11T08:46:04.772Z,101202.00
2018-07-11T08:52:20.741Z,101204.00
2018-07-11T08:58:04.833Z,101216.00
2018-07-11T09:07:22.742Z,101211.00
2018-07-11T09:12:35.551Z,101194.00
2018-07-11T09:19:22.037Z,101203.00
2018-07-11T09:24:32.738Z,101193.00
2018-07-11T09:29:25.967Z,101193.00
2018-07-11T09:34:19.261Z,101194.00
2018-07-11T09:39:12.695Z,101184.00
2018-07-11T09:44:05.938Z,101180.00
2018-07-11T09:48:59.383Z,101180.00
2018-07-11T09:53:52.697Z,101177.00
2018-07-11T09:58:46.627Z,101178.00
2018-07-11T10:03:39.903Z,101177.00
2018-07-11T10:08:33.232Z,101172.00
2018-07-11T10:13:26.643Z,101168.00
2018-07-11T10:18:20.239Z,101165.00
2018-07-11T10:23:13.589Z,101159.00
2018-07-11T10:28:18.184Z,101153.00
2018-07-11T10:33:12.276Z,101155.00
2018-07-11T10:38:05.887Z,101151.00
2018-07-11T10:42:59.283Z,101147.00
2018-07-11T10:47:52.703Z,101149.00
2018-07-11T10:52:46.530Z,101157.00
2018-07-11T10:57:40.667Z,101151.00
2018-07-11T11:02:33.890Z,101146.00
2018-07-11T11:07:27.775Z,101136.00
2018-07-11T11:12:21.107Z,101135.00
2018-07-11T11:17:14.428Z,101120.00
2018-07-11T11:22:08.865Z,101115.00
2018-07-11T11:27:02.096Z,101107.00
2018-07-11T11:31:55.368Z,101109.00
2018-07-11T11:36:48.642Z,101105.00
2018-07-11T11:41:42.368Z,101104.00
2018-07-11T11:46:35.456Z,101109.00
2018-07-11T11:51:28.679Z,101103.00
2018-07-11T11:56:22.033Z,101088.00
2018-07-11T12:01:15.320Z,101095.00
2018-07-11T12:06:09.509Z,101102.00
2018-07-11T12:11:02.905Z,101096.00
2018-07-11T12:15:56.064Z,101081.00
2018-07-11T12:20:49.649Z,101077.00
2018-07-11T12:26:09.624Z,101073.00
2018-07-11T12:31:03.073Z,101076.00
2018-07-11T12:35:56.379Z,101066.00
2018-07-11T12:40:49.713Z,101070.00
2018-07-11T12:45:42.992Z,101064.00
2018-07-11T12:50:36.344Z,101054.00
2018-07-11T12:55:29.494Z,101034.00
2018-07-11T13:00:22.991Z,101033.00
2018-07-11T13:05:16.341Z,101044.00
2018-07-11T13:10:09.668Z,101038.00
2018-07-11T13:15:02.957Z,101026.00
2018-07-11T13:19:56.209Z,101026.00
2018-07-11T13:24:49.357Z,101027.00
2018-07-11T13:29:42.615Z,101027.00
2018-07-11T13:34:36.337Z,101023.00
2018-07-11T13:39:29.485Z,101022.00
2018-07-11T13:44:22.724Z,101027.00
2018-07-11T13:49:16.044Z,101029.00
2018-07-11T13:54:09.815Z,101028.00
2018-07-11T13:59:03.835Z,101031.00
2018-07-11T14:03:57.034Z,101027.00
2018-07-11T14:08:51.181Z,101023.00
2018-07-11T14:13:44.524Z,101025.00
2018-07-11T14:18:37.911Z,101027.00
2018-07-11T14:23:39.326Z,101022.00
2018-07-11T14:28:32.817Z,101024.00
2018-07-11T14:33:29.770Z,101025.00
2018-07-11T14:38:24.835Z,101023.00
2018-07-11T14:43:18.426Z,101030.00
2018-07-11T14:48:15.891Z,101029.00
2018-07-11T14:53:09.456Z,101027.00
2018-07-11T14:58:02.773Z,101028.00
2018-07-11T15:02:56.693Z,101022.00
2018-07-11T15:07:49.845Z,101021.00
2018-07-11T15:12:43.155Z,101025.00
2018-07-11T15:17:36.576Z,101059.00
2018-07-11T15:22:29.981Z,101079.00
2018-07-11T15:27:23.583Z,101093.00
2018-07-11T15:32:16.798Z,101080.00
2018-07-11T15:37:10.217Z,101075.00
2018-07-11T15:42:04.080Z,101074.00
2018-07-11T15:46:57.453Z,101070.00
2018-07-11T15:51:51.136Z,101066.00
2018-07-11T15:56:44.576Z,101067.00
2018-07-11T16:01:46.141Z,101065.00
2018-07-11T16:06:39.655Z,101063.00
2018-07-11T16:11:32.995Z,101064.00
2018-07-11T16:16:26.285Z,101070.00
2018-07-11T16:21:19.623Z,101074.00
2018-07-11T16:26:13.119Z,101072.00
2018-07-11T16:31:06.293Z,101072.00
2018-07-11T16:35:59.629Z,101068.00
2018-07-11T16:40:54.051Z,101068.00
2018-07-11T16:45:47.424Z,101069.00
2018-07-11T16:50:40.755Z,101072.00
2018-07-11T16:55:35.248Z,101070.00
2018-07-11T17:00:32.358Z,101066.00
2018-07-11T17:05:25.692Z,101070.00
2018-07-11T17:10:21.362Z,101064.00
2018-07-11T17:15:14.716Z,101057.00
2018-07-11T17:20:10.220Z,101059.00
2018-07-11T17:25:05.986Z,101067.00
2018-07-11T17:30:02.283Z,101061.00
2018-07-11T17:34:55.508Z,101060.00
2018-07-11T17:39:54.893Z,101071.00
2018-07-11T17:44:53.380Z,101076.00
2018-07-11T17:49:55.801Z,101095.00
2018-07-11T17:55:08.686Z,101098.00
2018-07-11T18:00:07.458Z,101098.00
2018-07-11T18:05:48.862Z,101112.00
2018-07-11T18:10:47.912Z,101121.00
2018-07-11T18:15:53.419Z,101124.00
2018-07-11T18:23:14.044Z,101118.00
2018-07-11T18:28:22.219Z,101116.00
2018-07-11T18:33:43.537Z,101119.00
2018-07-11T18:39:05.844Z,101112.00
2018-07-11T18:46:20.655Z,101107.00
2018-07-11T18:51:28.780Z,101110.00
2018-07-11T18:57:09.071Z,101112.00
2018-07-11T19:05:26.153Z,101108.00
2018-07-11T19:10:44.834Z,101109.00
2018-07-11T19:15:43.638Z,101104.00
2018-07-11T19:21:47.040Z,101106.00
2018-07-11T19:26:57.951Z,101114.00
2018-07-11T19:33:06.329Z,101114.00
2018-07-11T19:38:07.186Z,101112.00
2018-07-11T19:44:16.752Z,101120.00
2018-07-11T19:49:30.575Z,101116.00
2018-07-11T19:54:46.332Z,101114.00
2018-07-11T19:59:39.647Z,101119.00
2018-07-11T20:04:33.020Z,101122.00
2018-07-11T20:09:27.055Z,101125.00
2018-07-11T20:14:21.378Z,101121.00
2018-07-11T20:19:14.823Z,101120.00
2018-07-11T20:24:08.125Z,101123.00
2018-07-11T20:29:01.489Z,101130.00
2018-07-11T20:33:54.743Z,101127.00
2018-07-11T20:38:48.041Z,101131.00
2018-07-11T20:43:41.630Z,101135.00
2018-07-11T20:48:38.613Z,101134.00
2018-07-11T20:53:32.007Z,101139.00
2018-07-11T20:58:36.861Z,101142.00
2018-07-11T21:04:49.462Z,101152.00
2018-07-11T21:10:16.296Z,101180.00
2018-07-11T21:17:29.642Z,101179.00
2018-07-11T21:22:22.925Z,101175.00
2018-07-11T21:27:16.137Z,101173.00
2018-07-11T21:32:09.386Z,101170.00
2018-07-11T21:37:02.617Z,101180.00
2018-07-11T21:41:55.867Z,101167.00
2018-07-11T21:46:49.147Z,101174.00
2018-07-11T21:51:42.301Z,101173.00
2018-07-11T21:56:35.525Z,101173.00
2018-07-11T22:01:28.856Z,101171.00
2018-07-11T22:06:22.109Z,101179.00
2018-07-11T22:11:15.359Z,101174.00
2018-07-11T22:16:11.486Z,101169.00
2018-07-11T22:21:04.041Z,101169.00
2018-07-11T22:25:55.611Z,101170.00
2018-07-11T22:30:48.137Z,101165.00
2018-07-11T22:35:40.531Z,101167.00
2018-07-11T22:40:32.218Z,101164.00
2018-07-11T22:45:23.811Z,101164.00
2018-07-11T22:50:15.959Z,101167.00
2018-07-11T22:55:07.528Z,101175.00
2018-07-11T22:59:59.553Z,101169.00
2018-07-11T23:04:51.123Z,101169.00
2018-07-11T23:09:42.771Z,101170.00
2018-07-11T23:14:34.671Z,101170.00
2018-07-11T23:19:26.526Z,101160.00
2018-07-11T23:24:18.544Z,101161.00
2018-07-11T23:29:10.229Z,101159.00
2018-07-11T23:34:01.794Z,101163.00
2018-07-11T23:38:53.379Z,101159.00
2018-07-11T23:43:45.388Z,101164.00
2018-07-11T23:48:36.957Z,101163.00
2018-07-11T23:53:29.024Z,101162.00
2018-07-11T23:58:20.585Z,101165.00
